KAMW/AMW METAR and TAF weather

Enter ICAO airport designator
Station Type Date Time Source
KAMW METAR 2020/09/23 18:53 UTC NOAA

KAMW 231853Z AUTO 17013G20KT 10SM SCT044 25/16 A2998 RMK AO2 SLP148 T02500156


Station Type Date Time Source
KAMW Decoded METAR 2020/09/23 18:53 UTC NOAA

AMES MUNICIPAL AIRPORT, IA, United States (KAMW) 41-59N 93-37W 279M
Sep 23, 2020 - 02:53 PM EDT / 2020.09.23 1853 UTC
Wind: from the S (170 degrees) at 15 MPH (13 KT) gusting to 23 MPH (20 KT):0
Visibility: 10 mile(s):0
Sky conditions: partly cloudy
Temperature: 77.0 F (25.0 C)
Dew Point: 60.1 F (15.6 C)
Relative Humidity: 55%
Pressure (altimeter): 29.98 in. Hg (1015 hPa)
ob: KAMW 231853Z AUTO 17013G20KT 10SM SCT044 25/16 A2998 RMK AO2 SLP148 T02500156
cycle: 19

Station Type Date Time Source
KAMW TAF UTC NOAA

Error!

Example: see airport list